Terminal Aerodrome Forecast
Issued by NWS Cleveland, OH

Home | Current Version | Previous Version | Text Only | Print | Product List | Glossary On
Versions: 1 2 3 4 5 6 7 8 9 10 11 12 13 14 15 16 17 18 19
000
FTUS41 KCLE 210500
TAFCAK
TAF
KCAK 210537Z 2106/2206 25004KT 6SM BR SCT100
      TEMPO 2108/2110 3SM BR SCT015
     FM211000 25004KT 3SM BR SCT015 BKN100
      TEMPO 2111/2113 1SM BR BKN015
     FM211400 24005KT P6SM BKN035
     FM212000 23005KT P6SM VCTS SCT035CB BKN100
      TEMPO 2121/2201 2SM TSRA BR SCT015 OVC025CB=

USA.gov is the U.S. government's official web portal to all federal, state and local government web resources and services.